Time;durP1;ratioP1;P1;durP2;ratioP2;P2;SDS_P1;SDS_P2;PMS_P1;PMS_P2;Temp;Humidity;BMP_temperature;BMP_pressure;BME280_temperature;BME280_humidity;BME280_pressure;Samples;Min_cycle;Max_cycle;Signal;HPM_P1;HPM_P2
2022/05/13 00:01:10;;;;;;;;;30.67;30.33;25.70;39.70;;;;;;5037254;28;8790;-75
2022/05/13 00:03:37;;;;;;;;;30.33;30.33;25.60;40.10;;;;;;5037083;28;8955;-75
2022/05/13 00:06:03;;;;;;;;;19.33;19.33;25.50;40.30;;;;;;5037278;28;8746;-75
2022/05/13 00:08:29;;;;;;;;;32.67;31.67;25.60;40.50;;;;;;5037014;28;8813;-75
2022/05/13 00:10:55;;;;;;;;;31.00;31.00;25.60;40.60;;;;;;5037133;28;8792;-74
2022/05/13 00:13:21;;;;;;;;;29.67;29.67;25.50;40.80;;;;;;5037059;28;8750;-74
2022/05/13 00:15:48;;;;;;;;;30.33;30.33;25.50;40.70;;;;;;5037449;28;8888;-74
2022/05/13 00:18:15;;;;;;;;;33.67;32.67;25.50;40.30;;;;;;5037137;28;8819;-75
2022/05/13 00:20:41;;;;;;;;;35.00;33.33;25.50;40.30;;;;;;5037303;28;8862;-75
2022/05/13 00:23:07;;;;;;;;;35.00;33.67;25.40;40.30;;;;;;5036989;28;8884;-75
2022/05/13 00:25:35;;;;;;;;;32.67;31.67;25.40;40.40;;;;;;5037208;28;9466;-75
2022/05/13 00:28:04;;;;;;;;;34.33;33.33;25.40;40.90;;;;;;5035790;28;8983;-75
2022/05/13 00:30:33;;;;;;;;;33.00;32.00;25.40;40.60;;;;;;5036786;28;8827;-75
2022/05/13 00:33:00;;;;;;;;;33.00;32.00;25.40;40.50;;;;;;5036711;28;9574;-76
2022/05/13 00:35:26;;;;;;;;;32.67;31.67;25.40;40.60;;;;;;5036991;28;8793;-76
2022/05/13 00:37:52;;;;;;;;;29.00;29.00;25.30;40.70;;;;;;5036692;28;8766;-76
2022/05/13 00:40:21;;;;;;;;;30.67;30.33;25.30;40.60;;;;;;5036908;28;8884;-75
2022/05/13 00:42:47;;;;;;;;;30.67;30.67;25.40;40.50;;;;;;5036612;28;8770;-76
2022/05/13 00:45:14;;;;;;;;;36.00;33.67;25.20;40.60;;;;;;5036495;28;8864;-75
2022/05/13 00:47:40;;;;;;;;;31.00;31.00;25.20;40.80;;;;;;5036680;28;8785;-75
2022/05/13 00:50:09;;;;;;;;;34.00;33.00;25.20;40.80;;;;;;5033409;28;8782;-74
2022/05/13 00:52:36;;;;;;;;;31.33;31.33;25.10;40.80;;;;;;5036620;28;8773;-74
2022/05/13 00:55:08;;;;;;;;;28.33;28.33;25.10;40.90;;;;;;5036544;28;8766;-75
2022/05/13 00:57:37;;;;;;;;;30.33;30.33;25.10;41.00;;;;;;5036625;28;8805;-74
2022/05/13 01:00:11;;;;;;;;;40.33;36.67;25.00;41.10;;;;;;5036333;28;8790;-75
2022/05/13 01:02:37;;;;;;;;;43.00;37.67;24.90;41.30;;;;;;5036231;28;8891;-75
2022/05/13 01:05:06;;;;;;;;;40.00;36.33;24.90;41.80;;;;;;5036444;28;8773;-75
2022/05/13 01:07:33;;;;;;;;;40.00;36.33;24.80;41.90;;;;;;5036371;28;8808;-75
2022/05/13 01:10:03;;;;;;;;;36.33;34.00;24.70;42.20;;;;;;5036412;28;8746;-75
2022/05/13 01:12:34;;;;;;;;;33.67;32.67;24.70;42.90;;;;;;5036088;28;8855;-75
2022/05/13 01:15:15;;;;;;;;;41.00;37.33;24.70;43.00;;;;;;5036032;28;8754;-75
2022/05/13 01:20:29;;;;;;;;;38.67;36.33;24.60;42.80;;;;;;5036258;28;9374;-73
2022/05/13 01:23:00;;;;;;;;;39.00;36.00;24.70;42.90;;;;;;5035840;28;8793;-73
2022/05/13 01:25:28;;;;;;;;;36.67;35.33;24.60;42.90;;;;;;5034807;28;8785;-74
2022/05/13 01:27:56;;;;;;;;;38.00;34.67;24.60;42.40;;;;;;5035951;28;8798;-74
2022/05/13 01:30:30;;;;;;;;;36.67;35.33;24.60;42.50;;;;;;5035692;28;8822;-75
2022/05/13 01:32:56;;;;;;;;;36.33;34.00;24.50;42.70;;;;;;5035669;28;8793;-74
2022/05/13 01:35:22;;;;;;;;;39.00;36.33;24.50;42.70;;;;;;5035654;28;8877;-74
2022/05/13 01:37:49;;;;;;;;;41.33;37.33;24.50;42.70;;;;;;5034589;28;8839;-74
2022/05/13 01:40:16;;;;;;;;;34.00;33.00;24.50;42.60;;;;;;5035577;28;8931;-74
2022/05/13 01:42:42;;;;;;;;;38.67;36.00;24.60;42.50;;;;;;5051054;28;8789;-74
2022/05/13 01:45:09;;;;;;;;;38.33;35.33;24.60;42.50;;;;;;5034569;28;8762;-74
2022/05/13 01:47:35;;;;;;;;;45.67;39.33;24.50;42.50;;;;;;5035245;28;8882;-74
2022/05/13 01:50:03;;;;;;;;;41.33;37.00;24.50;42.60;;;;;;5035414;28;8758;-74
2022/05/13 01:52:29;;;;;;;;;43.67;38.00;24.20;42.70;;;;;;5035370;28;8749;-74
2022/05/13 01:54:54;;;;;;;;;37.33;34.67;24.10;43.10;;;;;;5035612;28;8793;-75
2022/05/13 01:57:20;;;;;;;;;38.33;35.33;24.20;42.80;;;;;;5035091;28;8777;-75
2022/05/13 01:59:46;;;;;;;;;38.67;35.33;24.30;42.90;;;;;;5035203;28;8770;-75
2022/05/13 02:02:12;;;;;;;;;33.00;33.00;24.20;42.40;;;;;;5034635;28;8770;-75
2022/05/13 02:04:37;;;;;;;;;37.67;34.67;24.10;42.70;;;;;;5035126;28;8847;-75
2022/05/13 02:07:04;;;;;;;;;36.00;34.00;24.20;42.50;;;;;;5034970;28;8863;-75
2022/05/13 02:09:31;;;;;;;;;36.67;35.00;24.20;42.70;;;;;;5035136;28;8774;-75
2022/05/13 02:11:56;;;;;;;;;37.33;34.33;24.20;42.30;;;;;;5035019;28;8835;-74
2022/05/13 02:14:22;;;;;;;;;31.33;30.67;24.20;42.40;;;;;;5034894;28;8770;-74
2022/05/13 02:16:48;;;;;;;;;37.33;35.67;24.20;42.80;;;;;;5035079;28;8757;-75
2022/05/13 02:19:14;;;;;;;;;33.33;32.00;24.20;42.80;;;;;;5034917;28;8762;-74
2022/05/13 02:21:40;;;;;;;;;37.33;34.00;24.20;43.70;;;;;;5034839;28;8770;-74
2022/05/13 02:24:06;;;;;;;;;36.00;34.00;24.30;42.90;;;;;;5034835;28;8781;-74
2022/05/13 02:26:33;;;;;;;;;36.67;35.33;24.20;42.90;;;;;;5034679;28;8782;-75
2022/05/13 02:29:01;;;;;;;;;35.33;33.33;24.10;42.80;;;;;;5034992;28;8795;-75
2022/05/13 02:31:30;;;;;;;;;34.33;33.33;24.10;42.80;;;;;;5034950;28;8839;-75
2022/05/13 02:33:59;;;;;;;;;39.00;35.67;24.10;43.20;;;;;;5034477;28;8884;-75
2022/05/13 02:36:27;;;;;;;;;34.67;33.33;24.10;43.40;;;;;;5034604;28;8789;-74
2022/05/13 02:38:53;;;;;;;;;37.33;34.67;24.10;43.70;;;;;;5034655;28;8797;-74
2022/05/13 02:41:20;;;;;;;;;37.33;34.33;24.00;43.60;;;;;;5034539;28;8770;-74
2022/05/13 02:43:52;;;;;;;;;38.00;35.00;24.00;43.60;;;;;;5034439;28;8766;-75
2022/05/13 02:46:24;;;;;;;;;34.33;33.33;24.00;43.70;;;;;;5034657;28;8816;-75
2022/05/13 02:48:50;;;;;;;;;35.00;33.33;23.90;44.10;;;;;;5034513;28;8738;-75
2022/05/13 02:51:17;;;;;;;;;40.33;37.00;23.80;44.10;;;;;;5034429;28;8868;-75
2022/05/13 02:53:43;;;;;;;;;31.33;31.00;23.70;44.40;;;;;;5033381;28;8792;-76
2022/05/13 02:56:09;;;;;;;;;34.67;33.33;23.60;44.60;;;;;;5034613;28;8762;-76
2022/05/13 02:58:37;;;;;;;;;45.25;39.50;23.60;44.60;;;;;;5033307;28;8769;-76
2022/05/13 03:01:05;;;;;;;;;43.50;38.50;23.60;45.00;;;;;;5034296;28;8786;-76
2022/05/13 03:03:31;;;;;;;;;47.00;40.00;23.70;45.00;;;;;;5034573;28;9572;-76
2022/05/13 03:05:59;;;;;;;;;44.75;38.50;23.70;45.20;;;;;;5034242;28;8778;-74
2022/05/13 03:08:25;;;;;;;;;45.00;39.50;23.70;45.00;;;;;;5034416;28;8797;-74
2022/05/13 03:10:51;;;;;;;;;42.67;37.67;23.70;45.10;;;;;;5034291;28;8792;-75
2022/05/13 03:13:19;;;;;;;;;44.00;38.00;23.80;45.20;;;;;;5034969;28;8778;-74
2022/05/13 03:15:45;;;;;;;;;42.75;38.25;23.70;45.10;;;;;;5038508;28;8750;-74
2022/05/13 03:18:11;;;;;;;;;44.00;39.00;23.60;45.50;;;;;;5038501;28;8758;-75
2022/05/13 03:20:37;;;;;;;;;42.67;38.00;23.60;45.80;;;;;;5038241;28;8766;-75
2022/05/13 03:23:03;;;;;;;;;42.00;37.75;23.40;45.90;;;;;;5038308;28;8808;-75
2022/05/13 03:25:30;;;;;;;;;39.67;36.33;23.50;45.60;;;;;;5038075;28;8899;-74
2022/05/13 03:27:56;;;;;;;;;48.50;42.25;23.70;45.40;;;;;;5038321;28;8816;-74
2022/05/13 03:30:24;;;;;;;;;46.50;40.50;23.70;44.80;;;;;;5038284;28;8769;-75
2022/05/13 03:32:51;;;;;;;;;39.67;36.67;23.70;44.90;;;;;;5037666;28;8805;-74
2022/05/13 03:35:18;;;;;;;;;39.33;36.33;23.80;44.60;;;;;;5037955;28;8851;-74
2022/05/13 03:37:43;;;;;;;;;43.33;38.33;23.90;44.40;;;;;;5037772;28;8769;-75
2022/05/13 03:40:12;;;;;;;;;44.00;38.00;24.00;44.40;;;;;;5038418;28;8785;-74
2022/05/13 03:42:38;;;;;;;;;45.67;40.00;23.90;44.60;;;;;;5037793;28;9448;-74
2022/05/13 03:45:08;;;;;;;;;40.33;37.00;23.90;44.40;;;;;;5038029;28;8781;-74
2022/05/13 03:47:34;;;;;;;;;42.67;37.67;23.90;45.00;;;;;;5037874;28;8887;-74
2022/05/13 03:50:00;;;;;;;;;41.67;37.33;23.90;44.70;;;;;;5037697;28;8750;-74
2022/05/13 03:52:26;;;;;;;;;37.67;34.67;23.80;44.40;;;;;;5037456;28;8770;-74
2022/05/13 03:54:53;;;;;;;;;42.67;37.67;23.90;44.40;;;;;;5037627;28;8869;-74
2022/05/13 03:57:19;;;;;;;;;39.00;35.33;24.00;44.10;;;;;;5037546;28;8769;-74
2022/05/13 03:59:45;;;;;;;;;35.67;33.67;24.00;44.10;;;;;;5037662;28;9520;-75
2022/05/13 04:02:11;;;;;;;;;43.00;38.00;24.00;43.90;;;;;;5037213;28;8868;-74
2022/05/13 04:10:07;;;;;;;;;43.00;38.33;23.90;44.00;;;;;;5037419;28;8757;-74
2022/05/13 04:18:02;;;;;;;;;39.75;36.00;23.90;44.20;;;;;;5037184;28;9394;-74
2022/05/13 04:20:29;;;;;;;;;34.75;33.50;23.90;44.10;;;;;;5037122;28;8772;-74
2022/05/13 04:22:54;;;;;;;;;41.00;37.25;24.00;43.90;;;;;;5036951;28;8781;-74
2022/05/13 04:25:20;;;;;;;;;46.25;40.25;24.00;43.90;;;;;;5036680;28;8770;-74
2022/05/13 04:27:46;;;;;;;;;41.00;36.50;24.10;44.10;;;;;;5037061;28;8805;-74
2022/05/13 04:30:13;;;;;;;;;39.50;36.00;24.10;44.10;;;;;;5036785;28;8806;-75
2022/05/13 04:32:39;;;;;;;;;44.25;39.50;24.10;44.30;;;;;;5036696;28;8855;-75
2022/05/13 04:35:05;;;;;;;;;47.50;40.50;23.90;44.50;;;;;;5036674;28;8904;-75
2022/05/13 04:37:31;;;;;;;;;51.50;43.75;23.50;46.00;;;;;;5036683;28;8769;-74
2022/05/13 04:39:57;;;;;;;;;49.00;42.25;23.10;47.20;;;;;;5036723;28;8850;-74
2022/05/13 04:45:10;;;;;;;;;48.75;42.50;23.50;46.20;;;;;;5036945;28;8856;-74
2022/05/13 04:50:21;;;;;;;;;43.00;38.00;23.90;46.20;;;;;;5036595;28;8742;-74
2022/05/13 04:52:47;;;;;;;;;50.25;43.50;24.00;45.70;;;;;;5035605;28;8793;-74
2022/05/13 04:55:13;;;;;;;;;51.00;44.50;24.10;45.10;;;;;;5036717;28;8791;-74
2022/05/13 04:57:39;;;;;;;;;47.75;40.75;24.10;45.00;;;;;;5036558;28;9459;-75
2022/05/13 05:00:10;;;;;;;;;51.00;44.25;24.10;44.50;;;;;;5036227;28;8781;-74
2022/05/13 05:02:35;;;;;;;;;50.00;43.50;24.20;44.20;;;;;;5036139;28;8801;-74
2022/05/13 05:05:01;;;;;;;;;45.75;39.75;24.20;43.90;;;;;;5036188;28;8784;-74
2022/05/13 05:07:27;;;;;;;;;49.75;42.50;24.30;43.70;;;;;;5035176;28;8797;-74
2022/05/13 05:09:53;;;;;;;;;45.75;39.50;24.40;43.80;;;;;;5051750;28;9583;-74
2022/05/13 05:12:18;;;;;;;;;46.25;40.50;24.40;43.60;;;;;;5036321;28;8839;-74
2022/05/13 05:14:44;;;;;;;;;48.25;42.00;24.40;44.00;;;;;;5035952;28;8785;-74
2022/05/13 05:17:10;;;;;;;;;52.00;44.00;24.50;44.20;;;;;;5034717;28;8785;-74
2022/05/13 05:19:36;;;;;;;;;41.75;37.25;24.60;45.00;;;;;;5035987;28;8741;-74
2022/05/13 05:22:05;;;;;;;;;43.75;38.50;24.70;43.60;;;;;;5036168;28;9434;-74
2022/05/13 05:24:31;;;;;;;;;43.50;38.25;24.70;43.90;;;;;;5035725;28;8868;-74
2022/05/13 05:26:57;;;;;;;;;50.50;42.75;24.80;43.80;;;;;;5036006;28;8908;-74
2022/05/13 05:29:23;;;;;;;;;42.33;38.00;24.90;43.80;;;;;;5035732;28;8750;-75
2022/05/13 05:31:49;;;;;;;;;40.00;36.00;24.80;42.40;;;;;;5035669;28;8762;-74
2022/05/13 05:34:17;;;;;;;;;42.67;37.67;24.70;41.80;;;;;;5035485;28;9858;-75
2022/05/13 05:36:43;;;;;;;;;41.67;37.00;24.70;42.60;;;;;;5033957;28;8789;-75
2022/05/13 05:39:10;;;;;;;;;38.33;35.33;24.80;42.40;;;;;;5035641;28;8788;-74
2022/05/13 05:41:36;;;;;;;;;39.67;36.00;25.10;41.80;;;;;;5035539;28;8782;-74
2022/05/13 05:44:02;;;;;;;;;38.00;35.00;25.20;41.50;;;;;;5035731;28;8761;-75
2022/05/13 05:46:28;;;;;;;;;38.67;35.00;25.30;41.10;;;;;;5035345;28;8778;-74
2022/05/13 05:48:54;;;;;;;;;38.00;35.00;25.30;41.30;;;;;;5035634;28;8789;-74
2022/05/13 05:51:20;;;;;;;;;29.33;29.33;25.30;41.00;;;;;;5035514;28;8788;-74
2022/05/13 05:59:14;;;;;;;;;33.00;32.00;25.40;40.30;;;;;;5035281;28;8876;-74
2022/05/13 06:01:40;;;;;;;;;32.67;31.33;25.50;40.50;;;;;;5035006;28;8943;-74
2022/05/13 06:04:06;;;;;;;;;29.00;29.00;25.40;40.90;;;;;;5035570;28;8801;-74
2022/05/13 06:06:32;;;;;;;;;29.33;29.33;25.50;41.20;;;;;;5034936;28;8772;-74
2022/05/13 06:09:01;;;;;;;;;30.00;30.00;24.90;41.70;;;;;;5034884;28;8790;-75
2022/05/13 06:11:27;;;;;;;;;27.67;27.67;24.90;42.90;;;;;;5033892;28;8895;-74
2022/05/13 06:13:54;;;;;;;;;28.33;28.33;25.00;43.20;;;;;;5034753;28;8766;-75
2022/05/13 06:16:25;;;;;;;;;29.33;29.33;25.10;43.60;;;;;;5035145;28;8766;-75
2022/05/13 06:18:51;;;;;;;;;29.33;29.33;25.20;43.70;;;;;;5034977;28;8773;-75
2022/05/13 06:21:16;;;;;;;;;25.67;25.67;25.10;44.00;;;;;;5034633;28;8777;-75
2022/05/13 06:23:42;;;;;;;;;29.67;29.67;25.40;43.90;;;;;;5034669;28;8757;-75
2022/05/13 06:26:08;;;;;;;;;25.33;24.67;25.50;43.80;;;;;;5034761;28;8855;-75
2022/05/13 06:28:34;;;;;;;;;27.33;27.33;25.10;44.90;;;;;;5034820;28;9475;-75
2022/05/13 06:31:00;;;;;;;;;29.33;29.33;25.20;45.30;;;;;;5034886;28;8773;-75
2022/05/13 06:33:26;;;;;;;;;28.00;28.00;25.50;44.70;;;;;;5033940;28;8853;-75
2022/05/13 06:35:52;;;;;;;;;22.00;22.00;25.70;44.20;;;;;;5039506;28;8872;-75
2022/05/13 06:38:21;;;;;;;;;14.67;14.67;25.50;43.30;;;;;;5035745;28;8801;-75
2022/05/13 06:40:48;;;;;;;;;22.00;22.00;25.60;42.60;;;;;;5034690;28;8769;-77
2022/05/13 06:43:14;;;;;;;;;26.67;26.67;25.70;42.00;;;;;;5034736;28;8781;-77
2022/05/13 06:45:41;;;;;;;;;25.00;25.00;25.50;42.30;;;;;;5034337;28;8774;-76
2022/05/13 06:48:07;;;;;;;;;26.00;26.00;25.50;42.40;;;;;;5033265;28;8831;-76
2022/05/13 06:50:33;;;;;;;;;23.00;23.00;25.60;41.80;;;;;;5034545;28;9524;-76
2022/05/13 06:52:59;;;;;;;;;23.00;23.00;25.50;41.80;;;;;;5034267;28;8782;-76
2022/05/13 06:55:25;;;;;;;;;24.33;24.33;25.60;41.60;;;;;;5034348;28;8855;-76
2022/05/13 06:57:51;;;;;;;;;21.00;21.00;25.50;41.70;;;;;;5034180;28;8765;-76
2022/05/13 07:00:17;;;;;;;;;24.33;24.33;25.50;42.20;;;;;;5034323;28;8797;-76
2022/05/13 07:02:43;;;;;;;;;21.67;21.67;25.50;42.70;;;;;;5034171;28;8828;-76
2022/05/13 07:05:11;;;;;;;;;19.67;19.67;25.50;42.60;;;;;;5034011;28;8769;-76
2022/05/13 07:07:37;;;;;;;;;21.67;21.67;25.50;42.80;;;;;;5034027;28;8794;-76
2022/05/13 07:10:05;;;;;;;;;24.33;24.33;25.50;42.90;;;;;;5034092;28;9538;-76
2022/05/13 07:12:32;;;;;;;;;24.33;24.33;25.90;43.10;;;;;;5034301;28;8769;-76
2022/05/13 07:14:58;;;;;;;;;23.67;23.67;26.00;42.40;;;;;;5033956;28;8754;-75
2022/05/13 07:17:24;;;;;;;;;21.33;21.33;25.70;42.20;;;;;;5034175;28;8786;-78
2022/05/13 07:19:50;;;;;;;;;18.33;18.33;25.80;41.80;;;;;;5034078;28;8773;-76
2022/05/13 07:22:16;;;;;;;;;27.67;27.67;25.60;42.70;;;;;;5034284;28;8786;-75
2022/05/13 07:24:42;;;;;;;;;23.67;23.67;25.90;43.10;;;;;;5034050;28;8785;-76
2022/05/13 07:27:08;;;;;;;;;21.00;21.00;25.90;41.50;;;;;;5034194;28;8805;-78
2022/05/13 07:29:34;;;;;;;;;23.67;23.67;25.80;42.70;;;;;;5033997;28;8913;-77
2022/05/13 07:31:59;;;;;;;;;28.33;28.33;26.10;42.10;;;;;;5034149;28;8801;-78
2022/05/13 07:34:25;;;;;;;;;21.00;21.00;25.80;42.60;;;;;;5033770;28;9007;-74
2022/05/13 07:36:53;;;;;;;;;21.33;21.33;26.10;42.70;;;;;;5032306;28;8781;-75
2022/05/13 07:42:08;;;;;;;;;23.33;23.33;26.10;41.40;;;;;;5033841;28;8770;-75
2022/05/13 07:44:35;;;;;;;;;20.67;20.67;26.10;41.20;;;;;;5033793;28;8781;-75
2022/05/13 07:47:02;;;;;;;;;25.67;25.67;26.10;42.70;;;;;;5029486;28;8962;-75
2022/05/13 07:49:28;;;;;;;;;26.33;26.33;26.20;41.60;;;;;;5016139;28;8806;-75
2022/05/13 07:51:53;;;;;;;;;23.67;23.67;26.40;41.30;;;;;;5033803;28;8794;-75
2022/05/13 07:54:19;;;;;;;;;25.33;25.33;26.40;41.50;;;;;;5033772;28;8774;-76
2022/05/13 07:56:45;;;;;;;;;21.33;21.33;26.70;42.60;;;;;;5033814;28;8809;-78
2022/05/13 07:59:11;;;;;;;;;22.00;22.00;26.80;40.80;;;;;;5035179;28;9553;-78
2022/05/13 08:01:36;;;;;;;;;20.67;20.67;26.70;40.50;;;;;;5037428;28;8761;-81
2022/05/13 08:04:02;;;;;;;;;22.00;22.00;26.80;40.10;;;;;;5037713;28;9537;-79
2022/05/13 08:06:28;;;;;;;;;25.00;25.00;26.60;40.20;;;;;;5037281;28;8789;-74
2022/05/13 08:08:58;;;;;;;;;21.33;21.33;26.70;40.60;;;;;;5037204;28;8836;-76
2022/05/13 08:11:27;;;;;;;;;26.33;26.33;26.50;40.50;;;;;;5037197;28;8808;-77
2022/05/13 08:13:52;;;;;;;;;23.00;23.00;26.60;41.00;;;;;;5037250;28;8774;-74
2022/05/13 08:16:25;;;;;;;;;24.67;24.67;26.90;40.20;;;;;;5037216;28;8797;-76
2022/05/13 08:18:56;;;;;;;;;17.67;17.67;27.30;39.90;;;;;;5037128;28;8770;-74
2022/05/13 08:21:21;;;;;;;;;23.67;23.67;27.70;39.10;;;;;;5037145;28;8947;-77
2022/05/13 08:23:48;;;;;;;;;21.33;21.33;27.90;39.00;;;;;;5036927;28;8793;-73
2022/05/13 08:26:14;;;;;;;;;23.00;23.00;28.10;38.90;;;;;;5036888;28;8797;-74
2022/05/13 08:28:42;;;;;;;;;21.33;21.33;28.10;37.90;;;;;;5036949;28;8813;-75
2022/05/13 08:31:09;;;;;;;;;23.00;23.00;28.00;37.40;;;;;;5036688;28;8770;-76
2022/05/13 08:33:36;;;;;;;;;16.67;16.67;27.80;37.60;;;;;;5036466;28;8841;-75
2022/05/13 08:36:04;;;;;;;;;19.00;19.00;27.90;37.60;;;;;;5035672;28;8824;-75
2022/05/13 08:38:34;;;;;;;;;23.33;23.33;27.80;38.10;;;;;;5036530;28;8781;-73
2022/05/13 08:41:02;;;;;;;;;19.67;19.67;27.60;37.50;;;;;;5036843;28;8842;-73
2022/05/13 08:43:37;;;;;;;;;23.33;23.33;27.90;37.70;;;;;;5036383;28;8777;-72
2022/05/13 08:46:14;;;;;;;;;22.67;22.67;28.00;37.00;;;;;;5024817;28;8815;-72
2022/05/13 08:49:06;;;;;;;;;22.33;22.33;27.90;37.30;;;;;;5016565;28;8816;-75
2022/05/13 08:53:06;;;;;;;;;22.33;22.33;27.80;37.70;;;;;;5016707;28;8800;-76
2022/05/13 08:54:58;;;;;;;;;23.00;23.00;27.80;37.60;;;;;;5024288;28;9562;-73
2022/05/13 08:57:31;;;;;;;;;23.00;23.00;28.30;37.80;;;;;;5016343;28;8807;-75
2022/05/13 09:00:06;;;;;;;;;21.67;21.67;28.00;37.20;;;;;;5034101;28;8801;-80
2022/05/13 09:02:39;;;;;;;;;14.00;14.00;28.00;37.70;;;;;;5036436;28;8810;-77
2022/05/13 09:05:30;;;;;;;;;21.67;20.00;28.10;37.50;;;;;;5035222;28;8797;-74
2022/05/13 09:07:57;;;;;;;;;17.00;17.00;28.50;37.40;;;;;;5036039;28;8821;-80
2022/05/13 09:10:24;;;;;;;;;18.00;18.00;28.60;36.40;;;;;;5035450;28;9478;-78
2022/05/13 09:13:01;;;;;;;;;21.33;21.33;28.50;36.80;;;;;;5036374;28;8830;-81
2022/05/13 09:15:48;;;;;;;;;21.33;21.33;28.80;36.10;;;;;;5035996;28;8838;-76
2022/05/13 09:18:41;;;;;;;;;19.67;19.67;29.10;35.90;;;;;;5036200;28;8797;-78
2022/05/13 09:21:18;;;;;;;;;22.33;21.67;29.10;36.30;;;;;;5036005;28;8912;-78
2022/05/13 09:23:44;;;;;;;;;22.67;22.67;28.80;36.60;;;;;;5035626;28;8770;-76
2022/05/13 09:26:13;;;;;;;;;21.00;21.00;28.80;36.60;;;;;;5035577;28;8859;-76
2022/05/13 09:29:03;;;;;;;;;26.33;26.33;28.70;37.00;;;;;;5036810;28;8793;-75
2022/05/13 09:31:32;;;;;;;;;23.33;23.33;29.40;36.70;;;;;;5037347;28;8786;-72
2022/05/13 09:33:58;;;;;;;;;25.33;25.33;29.60;36.40;;;;;;5030992;28;8832;-73
2022/05/13 09:36:27;;;;;;;;;23.33;23.33;29.50;36.10;;;;;;5042226;28;8814;-72
2022/05/13 09:38:59;;;;;;;;;23.00;23.00;29.40;34.80;;;;;;5036578;28;8793;-73
2022/05/13 09:41:33;;;;;;;;;23.33;23.33;29.60;35.30;;;;;;5027816;28;8772;-75
2022/05/13 09:44:08;;;;;;;;;18.00;18.00;29.50;35.70;;;;;;5025129;28;8793;-74
2022/05/13 09:46:43;;;;;;;;;24.00;24.00;29.80;35.40;;;;;;5035445;28;8797;-74
2022/05/13 09:49:29;;;;;;;;;23.00;23.00;30.10;35.20;;;;;;5034871;28;8867;-76
2022/05/13 09:51:57;;;;;;;;;21.67;21.67;30.50;35.30;;;;;;5021891;28;8876;-75
2022/05/13 09:54:35;;;;;;;;;22.00;22.00;30.70;34.10;;;;;;5031017;28;11550;-76
2022/05/13 09:57:08;;;;;;;;;23.00;23.00;30.60;33.60;;;;;;5035217;28;8785;-75
2022/05/13 09:59:46;;;;;;;;;23.00;23.00;30.30;34.00;;;;;;5035356;28;8828;-75
2022/05/13 10:02:29;;;;;;;;;23.67;23.67;30.30;34.50;;;;;;5026743;28;8800;-75
2022/05/13 10:05:15;;;;;;;;;24.00;24.00;30.70;34.50;;;;;;5025068;28;8873;-75
2022/05/13 10:08:09;;;;;;;;;22.00;22.00;31.10;34.20;;;;;;5020568;28;8932;-75
2022/05/13 10:13:59;;;;;;;;;21.67;21.67;32.00;32.70;;;;;;4993224;28;8802;-77
2022/05/13 10:16:48;;;;;;;;;22.67;22.67;31.60;31.80;;;;;;5031623;28;11597;-75
2022/05/13 10:19:24;;;;;;;;;21.67;21.67;31.10;32.80;;;;;;5034389;28;8928;-77
2022/05/13 10:22:00;;;;;;;;;24.00;24.00;31.30;34.40;;;;;;5034302;28;11563;-76
2022/05/13 10:24:36;;;;;;;;;24.00;23.00;31.70;33.00;;;;;;5026062;28;8804;-74
2022/05/13 10:27:04;;;;;;;;;21.67;21.67;31.60;32.00;;;;;;5014887;28;8918;-74
2022/05/13 10:29:48;;;;;;;;;14.33;14.33;31.80;31.70;;;;;;5015620;28;8809;-76
2022/05/13 10:32:25;;;;;;;;;21.00;21.00;32.30;31.80;;;;;;5017094;28;11579;-75
2022/05/13 10:34:55;;;;;;;;;22.00;22.00;32.60;30.70;;;;;;5026687;28;11548;-74
2022/05/13 10:37:29;;;;;;;;;19.00;19.00;32.80;30.90;;;;;;5029438;28;8807;-75
2022/05/13 10:40:04;;;;;;;;;18.33;18.33;32.70;30.70;;;;;;5022194;28;11556;-76
2022/05/13 10:42:41;;;;;;;;;18.33;18.33;32.80;30.00;;;;;;5028694;28;12543;-75
2022/05/13 10:45:19;;;;;;;;;23.67;23.67;32.90;30.10;;;;;;5034563;28;11602;-75
2022/05/13 10:48:11;;;;;;;;;21.67;21.67;33.10;30.00;;;;;;5029985;28;11662;-74
2022/05/13 10:50:48;;;;;;;;;18.33;18.33;33.10;29.60;;;;;;5027230;28;11622;-76
2022/05/13 10:53:22;;;;;;;;;21.33;21.33;33.40;29.10;;;;;;5034555;28;8806;-75
2022/05/13 10:55:48;;;;;;;;;21.33;21.00;34.20;29.80;;;;;;5034332;28;11558;-76
2022/05/13 10:58:35;;;;;;;;;22.00;22.00;34.60;29.30;;;;;;5034998;28;11528;-80
2022/05/13 11:01:27;;;;;;;;;20.00;20.00;34.40;28.90;;;;;;5034374;28;8786;-77
2022/05/13 11:04:12;;;;;;;;;19.33;19.33;34.70;28.60;;;;;;5014560;28;11540;-76
2022/05/13 11:07:01;;;;;;;;;22.00;22.00;34.80;28.20;;;;;;5034204;28;12236;-77
2022/05/13 11:10:08;;;;;;;;;20.33;20.33;35.30;28.20;;;;;;5034149;28;11527;-77
2022/05/13 11:12:42;;;;;;;;;18.33;18.33;35.50;27.80;;;;;;5033898;28;11540;-76
2022/05/13 11:15:36;;;;;;;;;18.67;18.67;35.50;27.10;;;;;;5033877;28;11510;-77
2022/05/13 11:18:19;;;;;;;;;19.50;19.50;35.60;26.70;;;;;;5034142;28;11507;-77
2022/05/13 11:20:52;;;;;;;;;18.25;18.25;35.90;26.40;;;;;;5028162;28;11681;-75
2022/05/13 11:23:29;;;;;;;;;16.00;16.00;36.20;25.50;;;;;;5032834;28;11541;-78
2022/05/13 11:25:56;;;;;;;;;21.00;21.00;36.20;25.20;;;;;;5033728;28;11649;-78
2022/05/13 11:28:52;;;;;;;;;19.75;19.75;36.30;25.20;;;;;;5033711;28;11556;-79
2022/05/13 11:31:36;;;;;;;;;19.75;19.75;36.40;24.60;;;;;;5033716;28;11526;-78
2022/05/13 11:34:18;;;;;;;;;15.75;15.75;38.00;24.70;;;;;;5035207;28;12209;-78
2022/05/13 11:37:02;;;;;;;;;20.00;20.00;45.50;22.30;;;;;;5038035;28;12225;-77
2022/05/13 11:39:43;;;;;;;;;21.00;21.00;51.90;18.90;;;;;;5037878;28;11536;-78
2022/05/13 11:42:37;;;;;;;;;18.67;18.67;56.80;16.30;;;;;;5037628;28;11522;-78
2022/05/13 11:45:21;;;;;;;;;18.00;18.00;58.60;14.20;;;;;;5037564;28;11527;-77
2022/05/13 11:48:01;;;;;;;;;18.25;18.25;61.10;13.50;;;;;;5037375;28;11539;-78
2022/05/13 11:50:30;;;;;;;;;18.25;18.25;62.20;13.00;;;;;;5037648;28;11535;-78
2022/05/13 11:52:59;;;;;;;;;17.75;17.75;62.60;11.80;;;;;;5037277;28;11497;-77
2022/05/13 11:55:41;;;;;;;;;16.00;16.00;63.40;12.20;;;;;;5037340;28;12240;-77
2022/05/13 11:58:08;;;;;;;;;13.75;13.75;64.80;11.50;;;;;;5037249;28;11507;-79
2022/05/13 12:00:40;;;;;;;;;15.50;15.50;64.50;11.10;;;;;;5037195;28;11524;-79
2022/05/13 12:03:08;;;;;;;;;15.25;15.25;65.20;11.20;;;;;;5037252;28;11648;-79
2022/05/13 12:06:01;;;;;;;;;16.67;16.67;65.70;10.80;;;;;;5037065;28;11573;-78
2022/05/13 12:08:36;;;;;;;;;15.67;15.67;65.70;10.60;;;;;;5036581;28;11597;-74
2022/05/13 12:11:02;;;;;;;;;14.67;14.67;63.10;10.00;;;;;;5035758;28;11470;-75
2022/05/13 12:14:04;;;;;;;;;14.50;14.50;55.70;10.60;;;;;;5034686;28;11495;-75
2022/05/13 12:16:58;;;;;;;;;19.00;19.00;50.70;13.40;;;;;;5027512;28;8781;-74
2022/05/13 12:19:58;;;;;;;;;19.00;19.00;47.40;16.00;;;;;;5028390;28;11581;-75
2022/05/13 12:22:30;;;;;;;;;19.75;19.75;44.60;17.10;;;;;;5004821;28;11559;-76
2022/05/13 12:25:04;;;;;;;;;15.25;15.25;43.30;18.50;;;;;;5035690;28;12194;-76
2022/05/13 12:27:38;;;;;;;;;17.00;17.00;42.10;19.20;;;;;;5035550;28;11494;-76
2022/05/13 12:30:31;;;;;;;;;17.00;17.00;41.50;19.80;;;;;;5034241;28;11551;-74
2022/05/13 12:33:24;;;;;;;;;15.75;15.75;40.40;20.10;;;;;;5038001;28;11526;-76
2022/05/13 12:39:10;;;;;;;;;19.00;19.00;38.80;22.00;;;;;;4953403;28;11524;-74
2022/05/13 12:41:42;;;;;;;;;18.75;18.75;38.80;21.80;;;;;;4954804;28;12223;-76
2022/05/13 12:44:13;;;;;;;;;17.25;17.25;38.80;21.90;;;;;;4954969;28;8866;-75
2022/05/13 12:46:48;;;;;;;;;15.50;15.50;39.00;22.70;;;;;;4938703;28;11511;-74
2022/05/13 12:49:21;;;;;;;;;18.25;18.25;38.90;22.90;;;;;;4954667;28;11704;-74
2022/05/13 12:52:14;;;;;;;;;18.00;18.00;38.80;22.80;;;;;;4953030;28;11506;-75
2022/05/13 12:55:07;;;;;;;;;19.67;19.67;39.00;23.40;;;;;;4920487;28;11537;-75
2022/05/13 12:57:59;;;;;;;;;19.00;19.00;38.80;23.30;;;;;;4941347;28;11533;-75
2022/05/13 13:00:33;;;;;;;;;14.75;14.75;38.90;21.90;;;;;;4954688;28;11541;-74
2022/05/13 13:03:00;;;;;;;;;18.00;18.00;38.70;21.60;;;;;;4954550;28;12309;-75
2022/05/13 13:05:35;;;;;;;;;18.00;18.00;38.60;21.60;;;;;;4954535;28;11525;-77
2022/05/13 13:08:12;;;;;;;;;19.00;19.00;38.30;21.90;;;;;;4953118;28;11508;-78
2022/05/13 13:10:55;;;;;;;;;19.00;19.00;38.30;22.10;;;;;;4954256;28;11546;-75
2022/05/13 13:13:40;;;;;;;;;14.50;14.50;38.20;21.30;;;;;;4960277;28;12149;-75
2022/05/13 13:16:18;;;;;;;;;18.67;18.67;38.30;21.90;;;;;;5032444;28;11478;-76
2022/05/13 13:18:44;;;;;;;;;14.00;14.00;38.50;21.50;;;;;;5032067;28;11724;-74
2022/05/13 13:21:12;;;;;;;;;16.75;16.75;38.80;21.90;;;;;;5034492;28;11629;-76
2022/05/13 13:23:43;;;;;;;;;19.50;19.50;38.80;21.60;;;;;;5034767;28;8765;-76
2022/05/13 13:26:13;;;;;;;;;17.67;17.67;38.30;22.40;;;;;;5034315;28;11510;-76
2022/05/13 13:28:40;;;;;;;;;18.00;18.00;38.30;22.10;;;;;;5034360;28;11494;-75